sensor_id;sensor_type;location;lat;lon;timestamp;P1;durP1;ratioP1;P2;durP2;ratioP2
75890;SDS011;64571;47.512;19.054;2022-12-18T00:02:49;42.78;;;14.95;;
75890;SDS011;64571;47.512;19.054;2022-12-18T00:05:51;47.20;;;15.55;;
75890;SDS011;64571;47.512;19.054;2022-12-18T00:08:55;44.27;;;15.80;;
75890;SDS011;64571;47.512;19.054;2022-12-18T00:11:59;38.33;;;15.15;;
75890;SDS011;64571;47.512;19.054;2022-12-18T00:15:16;43.53;;;16.12;;
75890;SDS011;64571;47.512;19.054;2022-12-18T00:18:19;38.42;;;14.32;;
75890;SDS011;64571;47.512;19.054;2022-12-18T00:21:21;41.03;;;16.10;;
75890;SDS011;64571;47.512;19.054;2022-12-18T00:24:24;41.70;;;14.90;;
75890;SDS011;64571;47.512;19.054;2022-12-18T00:27:27;43.05;;;15.35;;
75890;SDS011;64571;47.512;19.054;2022-12-18T00:30:29;40.55;;;15.00;;
75890;SDS011;64571;47.512;19.054;2022-12-18T00:33:32;42.47;;;14.57;;
75890;SDS011;64571;47.512;19.054;2022-12-18T00:36:35;44.05;;;15.15;;
75890;SDS011;64571;47.512;19.054;2022-12-18T00:39:38;41.33;;;14.60;;
75890;SDS011;64571;47.512;19.054;2022-12-18T00:42:40;36.65;;;14.02;;
75890;SDS011;64571;47.512;19.054;2022-12-18T00:46:08;43.28;;;14.80;;
75890;SDS011;64571;47.512;19.054;2022-12-18T00:49:11;39.60;;;14.25;;
75890;SDS011;64571;47.512;19.054;2022-12-18T00:52:13;36.15;;;11.95;;
75890;SDS011;64571;47.512;19.054;2022-12-18T00:55:16;41.17;;;13.83;;
75890;SDS011;64571;47.512;19.054;2022-12-18T00:58:21;42.70;;;14.40;;
75890;SDS011;64571;47.512;19.054;2022-12-18T01:01:23;37.88;;;13.65;;
75890;SDS011;64571;47.512;19.054;2022-12-18T01:04:26;41.83;;;14.05;;
75890;SDS011;64571;47.512;19.054;2022-12-18T01:07:29;42.03;;;14.25;;
75890;SDS011;64571;47.512;19.054;2022-12-18T01:10:31;37.27;;;14.03;;
75890;SDS011;64571;47.512;19.054;2022-12-18T01:13:34;42.90;;;14.10;;
75890;SDS011;64571;47.512;19.054;2022-12-18T01:16:36;37.45;;;13.00;;
75890;SDS011;64571;47.512;19.054;2022-12-18T01:19:39;39.72;;;13.75;;
75890;SDS011;64571;47.512;19.054;2022-12-18T01:22:44;43.72;;;14.43;;
75890;SDS011;64571;47.512;19.054;2022-12-18T01:25:46;41.37;;;14.63;;
75890;SDS011;64571;47.512;19.054;2022-12-18T01:28:49;41.83;;;13.60;;
75890;SDS011;64571;47.512;19.054;2022-12-18T01:31:54;45.10;;;14.05;;
75890;SDS011;64571;47.512;19.054;2022-12-18T01:34:57;41.35;;;15.27;;
75890;SDS011;64571;47.512;19.054;2022-12-18T01:38:01;35.33;;;13.98;;
75890;SDS011;64571;47.512;19.054;2022-12-18T01:41:03;39.47;;;14.30;;
75890;SDS011;64571;47.512;19.054;2022-12-18T01:44:46;47.90;;;15.20;;
75890;SDS011;64571;47.512;19.054;2022-12-18T01:47:48;41.30;;;15.15;;
75890;SDS011;64571;47.512;19.054;2022-12-18T01:50:53;39.78;;;14.80;;
75890;SDS011;64571;47.512;19.054;2022-12-18T01:53:56;40.33;;;14.32;;
75890;SDS011;64571;47.512;19.054;2022-12-18T01:56:59;40.67;;;14.60;;
75890;SDS011;64571;47.512;19.054;2022-12-18T02:00:05;44.38;;;16.48;;
75890;SDS011;64571;47.512;19.054;2022-12-18T02:03:13;40.10;;;14.82;;
75890;SDS011;64571;47.512;19.054;2022-12-18T02:06:36;46.95;;;17.73;;
75890;SDS011;64571;47.512;19.054;2022-12-18T02:10:03;43.20;;;15.40;;
75890;SDS011;64571;47.512;19.054;2022-12-18T02:13:27;44.07;;;14.13;;
75890;SDS011;64571;47.512;19.054;2022-12-18T02:17:03;45.03;;;15.80;;
75890;SDS011;64571;47.512;19.054;2022-12-18T02:20:14;40.35;;;14.80;;
75890;SDS011;64571;47.512;19.054;2022-12-18T02:26:35;42.88;;;15.77;;
75890;SDS011;64571;47.512;19.054;2022-12-18T02:29:43;43.00;;;14.77;;
75890;SDS011;64571;47.512;19.054;2022-12-18T02:32:59;41.53;;;14.05;;
75890;SDS011;64571;47.512;19.054;2022-12-18T02:36:07;47.22;;;14.77;;
75890;SDS011;64571;47.512;19.054;2022-12-18T02:39:12;42.62;;;14.20;;
75890;SDS011;64571;47.512;19.054;2022-12-18T02:42:18;46.78;;;16.65;;
75890;SDS011;64571;47.512;19.054;2022-12-18T02:45:22;44.13;;;15.13;;
75890;SDS011;64571;47.512;19.054;2022-12-18T02:48:31;35.80;;;13.50;;
75890;SDS011;64571;47.512;19.054;2022-12-18T02:51:39;46.13;;;14.05;;
75890;SDS011;64571;47.512;19.054;2022-12-18T03:01:49;41.37;;;15.13;;
75890;SDS011;64571;47.512;19.054;2022-12-18T03:04:57;38.78;;;14.68;;
75890;SDS011;64571;47.512;19.054;2022-12-18T03:08:15;46.95;;;14.52;;
75890;SDS011;64571;47.512;19.054;2022-12-18T03:11:25;43.63;;;14.05;;
75890;SDS011;64571;47.512;19.054;2022-12-18T03:14:49;38.03;;;14.18;;
75890;SDS011;64571;47.512;19.054;2022-12-18T03:17:59;49.00;;;15.23;;
75890;SDS011;64571;47.512;19.054;2022-12-18T03:21:10;42.90;;;15.27;;
75890;SDS011;64571;47.512;19.054;2022-12-18T03:24:15;39.40;;;14.93;;
75890;SDS011;64571;47.512;19.054;2022-12-18T03:27:21;43.75;;;14.10;;
75890;SDS011;64571;47.512;19.054;2022-12-18T03:30:27;42.47;;;15.27;;
75890;SDS011;64571;47.512;19.054;2022-12-18T03:33:36;42.63;;;16.40;;
75890;SDS011;64571;47.512;19.054;2022-12-18T03:36:44;39.80;;;14.98;;
75890;SDS011;64571;47.512;19.054;2022-12-18T03:39:47;39.03;;;14.23;;
75890;SDS011;64571;47.512;19.054;2022-12-18T03:42:51;42.20;;;14.87;;
75890;SDS011;64571;47.512;19.054;2022-12-18T03:46:07;45.30;;;15.13;;
75890;SDS011;64571;47.512;19.054;2022-12-18T03:49:21;43.80;;;15.57;;
75890;SDS011;64571;47.512;19.054;2022-12-18T03:55:44;42.78;;;14.48;;
75890;SDS011;64571;47.512;19.054;2022-12-18T03:58:49;46.97;;;15.52;;
75890;SDS011;64571;47.512;19.054;2022-12-18T04:01:54;42.42;;;14.60;;
75890;SDS011;64571;47.512;19.054;2022-12-18T04:05:01;43.70;;;15.00;;
75890;SDS011;64571;47.512;19.054;2022-12-18T04:08:08;38.90;;;13.88;;
75890;SDS011;64571;47.512;19.054;2022-12-18T04:11:11;38.92;;;14.00;;
75890;SDS011;64571;47.512;19.054;2022-12-18T04:14:14;40.67;;;15.82;;
75890;SDS011;64571;47.512;19.054;2022-12-18T04:17:21;40.30;;;14.27;;
75890;SDS011;64571;47.512;19.054;2022-12-18T04:20:24;40.20;;;14.80;;
75890;SDS011;64571;47.512;19.054;2022-12-18T04:23:27;38.83;;;15.15;;
75890;SDS011;64571;47.512;19.054;2022-12-18T04:26:30;42.75;;;15.75;;
75890;SDS011;64571;47.512;19.054;2022-12-18T04:29:33;43.80;;;15.65;;
75890;SDS011;64571;47.512;19.054;2022-12-18T04:32:36;40.63;;;15.07;;
75890;SDS011;64571;47.512;19.054;2022-12-18T04:35:39;44.17;;;14.47;;
75890;SDS011;64571;47.512;19.054;2022-12-18T04:38:42;44.95;;;16.65;;
75890;SDS011;64571;47.512;19.054;2022-12-18T04:41:45;38.63;;;14.32;;
75890;SDS011;64571;47.512;19.054;2022-12-18T04:44:48;46.10;;;15.75;;
75890;SDS011;64571;47.512;19.054;2022-12-18T04:47:51;45.58;;;16.87;;
75890;SDS011;64571;47.512;19.054;2022-12-18T04:50:53;49.40;;;17.03;;
75890;SDS011;64571;47.512;19.054;2022-12-18T04:53:55;45.17;;;16.95;;
75890;SDS011;64571;47.512;19.054;2022-12-18T04:56:58;48.78;;;16.83;;
75890;SDS011;64571;47.512;19.054;2022-12-18T05:00:00;42.97;;;14.55;;
75890;SDS011;64571;47.512;19.054;2022-12-18T05:03:03;42.72;;;15.82;;
75890;SDS011;64571;47.512;19.054;2022-12-18T05:06:06;42.87;;;15.50;;
75890;SDS011;64571;47.512;19.054;2022-12-18T05:09:09;44.60;;;15.20;;
75890;SDS011;64571;47.512;19.054;2022-12-18T05:12:11;41.90;;;15.35;;
75890;SDS011;64571;47.512;19.054;2022-12-18T05:15:13;43.10;;;15.45;;
75890;SDS011;64571;47.512;19.054;2022-12-18T05:18:16;40.58;;;15.38;;
75890;SDS011;64571;47.512;19.054;2022-12-18T05:21:18;40.43;;;16.40;;
75890;SDS011;64571;47.512;19.054;2022-12-18T05:24:21;45.97;;;16.55;;
75890;SDS011;64571;47.512;19.054;2022-12-18T05:27:23;47.65;;;15.30;;
75890;SDS011;64571;47.512;19.054;2022-12-18T05:30:26;43.87;;;17.08;;
75890;SDS011;64571;47.512;19.054;2022-12-18T05:33:30;42.38;;;16.20;;
75890;SDS011;64571;47.512;19.054;2022-12-18T05:36:34;44.40;;;16.83;;
75890;SDS011;64571;47.512;19.054;2022-12-18T05:39:37;43.38;;;16.80;;
75890;SDS011;64571;47.512;19.054;2022-12-18T05:42:39;56.58;;;19.05;;
75890;SDS011;64571;47.512;19.054;2022-12-18T05:45:42;46.33;;;16.12;;
75890;SDS011;64571;47.512;19.054;2022-12-18T05:48:45;50.40;;;17.08;;
75890;SDS011;64571;47.512;19.054;2022-12-18T05:51:47;49.50;;;16.53;;
75890;SDS011;64571;47.512;19.054;2022-12-18T05:54:50;51.05;;;17.70;;
75890;SDS011;64571;47.512;19.054;2022-12-18T05:57:52;48.03;;;16.95;;
75890;SDS011;64571;47.512;19.054;2022-12-18T06:00:55;44.03;;;17.52;;
75890;SDS011;64571;47.512;19.054;2022-12-18T06:03:57;46.13;;;16.08;;
75890;SDS011;64571;47.512;19.054;2022-12-18T06:07:02;42.57;;;15.87;;
75890;SDS011;64571;47.512;19.054;2022-12-18T06:10:05;51.37;;;16.45;;
75890;SDS011;64571;47.512;19.054;2022-12-18T06:13:08;40.65;;;15.27;;
75890;SDS011;64571;47.512;19.054;2022-12-18T06:16:11;47.47;;;15.30;;
75890;SDS011;64571;47.512;19.054;2022-12-18T06:19:14;41.10;;;16.30;;
75890;SDS011;64571;47.512;19.054;2022-12-18T06:22:17;50.60;;;16.27;;
75890;SDS011;64571;47.512;19.054;2022-12-18T06:25:20;48.67;;;17.37;;
75890;SDS011;64571;47.512;19.054;2022-12-18T06:28:22;44.80;;;17.70;;
75890;SDS011;64571;47.512;19.054;2022-12-18T06:31:25;53.08;;;19.17;;
75890;SDS011;64571;47.512;19.054;2022-12-18T06:34:31;48.20;;;17.27;;
75890;SDS011;64571;47.512;19.054;2022-12-18T06:37:34;45.53;;;16.00;;
75890;SDS011;64571;47.512;19.054;2022-12-18T06:40:37;47.25;;;15.95;;
75890;SDS011;64571;47.512;19.054;2022-12-18T06:43:41;45.42;;;16.92;;
75890;SDS011;64571;47.512;19.054;2022-12-18T06:46:44;49.03;;;17.75;;
75890;SDS011;64571;47.512;19.054;2022-12-18T06:49:46;53.53;;;18.20;;
75890;SDS011;64571;47.512;19.054;2022-12-18T06:52:49;50.00;;;16.13;;
75890;SDS011;64571;47.512;19.054;2022-12-18T06:55:51;54.97;;;18.48;;
75890;SDS011;64571;47.512;19.054;2022-12-18T06:58:54;53.20;;;20.58;;
75890;SDS011;64571;47.512;19.054;2022-12-18T07:01:56;56.30;;;21.90;;
75890;SDS011;64571;47.512;19.054;2022-12-18T07:05:00;51.53;;;19.95;;
75890;SDS011;64571;47.512;19.054;2022-12-18T07:08:11;54.63;;;20.00;;
75890;SDS011;64571;47.512;19.054;2022-12-18T07:11:14;49.40;;;17.73;;
75890;SDS011;64571;47.512;19.054;2022-12-18T07:14:17;48.85;;;17.67;;
75890;SDS011;64571;47.512;19.054;2022-12-18T07:17:19;53.08;;;20.00;;
75890;SDS011;64571;47.512;19.054;2022-12-18T07:20:21;51.20;;;20.02;;
75890;SDS011;64571;47.512;19.054;2022-12-18T07:23:24;52.27;;;19.60;;
75890;SDS011;64571;47.512;19.054;2022-12-18T07:26:26;52.53;;;18.80;;
75890;SDS011;64571;47.512;19.054;2022-12-18T07:29:29;50.15;;;19.80;;
75890;SDS011;64571;47.512;19.054;2022-12-18T07:32:31;51.22;;;20.33;;
75890;SDS011;64571;47.512;19.054;2022-12-18T07:35:34;52.85;;;18.48;;
75890;SDS011;64571;47.512;19.054;2022-12-18T07:38:36;52.03;;;19.30;;
75890;SDS011;64571;47.512;19.054;2022-12-18T07:41:39;45.08;;;17.87;;
75890;SDS011;64571;47.512;19.054;2022-12-18T07:44:50;54.80;;;18.92;;
75890;SDS011;64571;47.512;19.054;2022-12-18T07:47:52;41.72;;;17.30;;
75890;SDS011;64571;47.512;19.054;2022-12-18T07:50:58;50.42;;;18.00;;
75890;SDS011;64571;47.512;19.054;2022-12-18T07:54:02;47.57;;;18.23;;
75890;SDS011;64571;47.512;19.054;2022-12-18T07:57:04;46.80;;;18.00;;
75890;SDS011;64571;47.512;19.054;2022-12-18T08:00:26;46.90;;;17.73;;
75890;SDS011;64571;47.512;19.054;2022-12-18T08:03:29;50.08;;;18.77;;
75890;SDS011;64571;47.512;19.054;2022-12-18T08:06:32;50.67;;;19.10;;
75890;SDS011;64571;47.512;19.054;2022-12-18T08:09:34;45.00;;;17.30;;
75890;SDS011;64571;47.512;19.054;2022-12-18T08:12:36;51.22;;;17.85;;
75890;SDS011;64571;47.512;19.054;2022-12-18T08:15:39;48.22;;;19.05;;
75890;SDS011;64571;47.512;19.054;2022-12-18T08:18:41;44.63;;;17.48;;
75890;SDS011;64571;47.512;19.054;2022-12-18T08:21:44;49.40;;;18.55;;
75890;SDS011;64571;47.512;19.054;2022-12-18T08:24:46;57.13;;;20.27;;
75890;SDS011;64571;47.512;19.054;2022-12-18T08:27:49;50.25;;;18.33;;
75890;SDS011;64571;47.512;19.054;2022-12-18T08:30:51;45.38;;;18.37;;
75890;SDS011;64571;47.512;19.054;2022-12-18T08:33:54;54.00;;;20.73;;
75890;SDS011;64571;47.512;19.054;2022-12-18T08:36:57;49.47;;;18.60;;
75890;SDS011;64571;47.512;19.054;2022-12-18T08:40:00;51.90;;;18.13;;
75890;SDS011;64571;47.512;19.054;2022-12-18T08:43:02;47.30;;;18.80;;
75890;SDS011;64571;47.512;19.054;2022-12-18T08:46:24;46.17;;;16.80;;
75890;SDS011;64571;47.512;19.054;2022-12-18T08:49:28;48.65;;;18.12;;
75890;SDS011;64571;47.512;19.054;2022-12-18T08:52:31;46.70;;;19.15;;
75890;SDS011;64571;47.512;19.054;2022-12-18T08:55:34;47.90;;;16.77;;
75890;SDS011;64571;47.512;19.054;2022-12-18T08:58:37;47.35;;;16.58;;
75890;SDS011;64571;47.512;19.054;2022-12-18T09:01:39;49.22;;;18.45;;
75890;SDS011;64571;47.512;19.054;2022-12-18T09:04:42;48.70;;;20.70;;
75890;SDS011;64571;47.512;19.054;2022-12-18T09:07:47;49.53;;;19.83;;
75890;SDS011;64571;47.512;19.054;2022-12-18T09:10:50;47.37;;;19.53;;
75890;SDS011;64571;47.512;19.054;2022-12-18T09:13:52;43.40;;;17.92;;
75890;SDS011;64571;47.512;19.054;2022-12-18T09:16:56;45.30;;;18.98;;
75890;SDS011;64571;47.512;19.054;2022-12-18T09:19:58;48.97;;;18.48;;
75890;SDS011;64571;47.512;19.054;2022-12-18T09:23:01;49.70;;;18.30;;
75890;SDS011;64571;47.512;19.054;2022-12-18T09:26:03;49.53;;;19.93;;
75890;SDS011;64571;47.512;19.054;2022-12-18T09:29:06;47.33;;;19.08;;
75890;SDS011;64571;47.512;19.054;2022-12-18T09:32:11;48.75;;;18.67;;
75890;SDS011;64571;47.512;19.054;2022-12-18T09:35:21;46.08;;;18.67;;
75890;SDS011;64571;47.512;19.054;2022-12-18T09:38:24;51.13;;;20.73;;
75890;SDS011;64571;47.512;19.054;2022-12-18T09:44:49;49.97;;;20.48;;
75890;SDS011;64571;47.512;19.054;2022-12-18T09:47:54;53.83;;;22.92;;
75890;SDS011;64571;47.512;19.054;2022-12-18T09:50:59;56.53;;;20.62;;
75890;SDS011;64571;47.512;19.054;2022-12-18T09:54:35;51.20;;;19.73;;
75890;SDS011;64571;47.512;19.054;2022-12-18T09:57:39;49.10;;;18.40;;
75890;SDS011;64571;47.512;19.054;2022-12-18T10:00:51;50.40;;;19.55;;
75890;SDS011;64571;47.512;19.054;2022-12-18T10:03:55;45.33;;;16.75;;
75890;SDS011;64571;47.512;19.054;2022-12-18T10:07:00;53.55;;;19.37;;
75890;SDS011;64571;47.512;19.054;2022-12-18T10:10:37;52.72;;;21.20;;
75890;SDS011;64571;47.512;19.054;2022-12-18T10:13:50;44.43;;;17.30;;
75890;SDS011;64571;47.512;19.054;2022-12-18T10:16:59;46.05;;;18.60;;
75890;SDS011;64571;47.512;19.054;2022-12-18T10:20:27;42.40;;;17.70;;
75890;SDS011;64571;47.512;19.054;2022-12-18T10:23:45;45.10;;;18.10;;
75890;SDS011;64571;47.512;19.054;2022-12-18T10:27:04;46.03;;;18.42;;
75890;SDS011;64571;47.512;19.054;2022-12-18T10:30:17;48.70;;;18.27;;
75890;SDS011;64571;47.512;19.054;2022-12-18T10:33:21;45.72;;;19.05;;
75890;SDS011;64571;47.512;19.054;2022-12-18T10:36:26;46.78;;;19.05;;
75890;SDS011;64571;47.512;19.054;2022-12-18T10:39:28;51.50;;;20.27;;
75890;SDS011;64571;47.512;19.054;2022-12-18T10:42:31;46.90;;;19.02;;
75890;SDS011;64571;47.512;19.054;2022-12-18T10:45:33;46.57;;;19.67;;
75890;SDS011;64571;47.512;19.054;2022-12-18T10:51:48;52.28;;;21.33;;
75890;SDS011;64571;47.512;19.054;2022-12-18T10:54:57;50.90;;;21.23;;
75890;SDS011;64571;47.512;19.054;2022-12-18T11:01:33;46.93;;;18.23;;
75890;SDS011;64571;47.512;19.054;2022-12-18T11:04:54;60.75;;;20.25;;
75890;SDS011;64571;47.512;19.054;2022-12-18T11:07:57;49.72;;;20.02;;
75890;SDS011;64571;47.512;19.054;2022-12-18T11:11:01;48.20;;;19.90;;
75890;SDS011;64571;47.512;19.054;2022-12-18T11:14:05;51.47;;;21.02;;
75890;SDS011;64571;47.512;19.054;2022-12-18T11:17:31;52.10;;;20.03;;
75890;SDS011;64571;47.512;19.054;2022-12-18T11:20:38;54.00;;;22.23;;
75890;SDS011;64571;47.512;19.054;2022-12-18T11:23:59;50.78;;;23.30;;
75890;SDS011;64571;47.512;19.054;2022-12-18T11:27:02;52.83;;;21.85;;
75890;SDS011;64571;47.512;19.054;2022-12-18T11:33:27;57.13;;;22.40;;
75890;SDS011;64571;47.512;19.054;2022-12-18T11:36:35;47.13;;;20.00;;
75890;SDS011;64571;47.512;19.054;2022-12-18T11:39:46;56.97;;;22.05;;
75890;SDS011;64571;47.512;19.054;2022-12-18T11:42:56;49.55;;;18.98;;
75890;SDS011;64571;47.512;19.054;2022-12-18T11:46:26;52.67;;;20.77;;
75890;SDS011;64571;47.512;19.054;2022-12-18T11:49:37;53.03;;;21.30;;
75890;SDS011;64571;47.512;19.054;2022-12-18T11:52:43;50.38;;;22.25;;
75890;SDS011;64571;47.512;19.054;2022-12-18T11:55:49;53.75;;;19.42;;
75890;SDS011;64571;47.512;19.054;2022-12-18T11:59:03;58.33;;;23.20;;
75890;SDS011;64571;47.512;19.054;2022-12-18T12:22:33;55.93;;;27.03;;
75890;SDS011;64571;47.512;19.054;2022-12-18T12:25:49;48.75;;;21.95;;
75890;SDS011;64571;47.512;19.054;2022-12-18T12:39:15;48.87;;;19.80;;
75890;SDS011;64571;47.512;19.054;2022-12-18T12:42:44;45.72;;;19.87;;
75890;SDS011;64571;47.512;19.054;2022-12-18T12:46:09;52.47;;;20.95;;
75890;SDS011;64571;47.512;19.054;2022-12-18T12:49:23;53.00;;;20.50;;
75890;SDS011;64571;47.512;19.054;2022-12-18T12:55:32;50.13;;;21.23;;
75890;SDS011;64571;47.512;19.054;2022-12-18T13:05:00;44.33;;;18.15;;
75890;SDS011;64571;47.512;19.054;2022-12-18T13:08:24;47.22;;;18.87;;
75890;SDS011;64571;47.512;19.054;2022-12-18T13:11:34;34.60;;;14.37;;
75890;SDS011;64571;47.512;19.054;2022-12-18T13:18:38;40.95;;;15.38;;
75890;SDS011;64571;47.512;19.054;2022-12-18T13:21:42;41.22;;;17.30;;
75890;SDS011;64571;47.512;19.054;2022-12-18T13:24:54;38.10;;;16.10;;
75890;SDS011;64571;47.512;19.054;2022-12-18T13:34:42;38.20;;;14.57;;
75890;SDS011;64571;47.512;19.054;2022-12-18T13:37:52;33.95;;;13.70;;
75890;SDS011;64571;47.512;19.054;2022-12-18T13:40:59;36.55;;;14.68;;
75890;SDS011;64571;47.512;19.054;2022-12-18T13:44:24;34.73;;;14.10;;
75890;SDS011;64571;47.512;19.054;2022-12-18T13:47:32;37.25;;;16.25;;
75890;SDS011;64571;47.512;19.054;2022-12-18T13:50:37;36.58;;;14.95;;
75890;SDS011;64571;47.512;19.054;2022-12-18T13:56:57;35.67;;;15.48;;
75890;SDS011;64571;47.512;19.054;2022-12-18T14:03:25;36.30;;;15.60;;
75890;SDS011;64571;47.512;19.054;2022-12-18T14:06:30;46.15;;;18.62;;
75890;SDS011;64571;47.512;19.054;2022-12-18T14:09:37;43.13;;;17.30;;
75890;SDS011;64571;47.512;19.054;2022-12-18T14:12:47;50.58;;;20.12;;
75890;SDS011;64571;47.512;19.054;2022-12-18T14:16:05;51.97;;;20.03;;
75890;SDS011;64571;47.512;19.054;2022-12-18T14:19:14;54.67;;;21.00;;
75890;SDS011;64571;47.512;19.054;2022-12-18T14:22:20;59.88;;;25.20;;
75890;SDS011;64571;47.512;19.054;2022-12-18T14:25:30;52.42;;;21.23;;
75890;SDS011;64571;47.512;19.054;2022-12-18T14:28:43;59.33;;;23.77;;
75890;SDS011;64571;47.512;19.054;2022-12-18T14:31:46;52.87;;;22.93;;
75890;SDS011;64571;47.512;19.054;2022-12-18T14:34:53;64.10;;;24.98;;
75890;SDS011;64571;47.512;19.054;2022-12-18T14:41:26;64.75;;;24.92;;
75890;SDS011;64571;47.512;19.054;2022-12-18T14:44:30;55.50;;;22.40;;
75890;SDS011;64571;47.512;19.054;2022-12-18T14:47:45;57.43;;;21.87;;
75890;SDS011;64571;47.512;19.054;2022-12-18T14:51:12;59.70;;;22.80;;
75890;SDS011;64571;47.512;19.054;2022-12-18T14:54:18;56.25;;;23.20;;
75890;SDS011;64571;47.512;19.054;2022-12-18T14:57:23;57.22;;;23.05;;
75890;SDS011;64571;47.512;19.054;2022-12-18T15:00:29;62.65;;;22.50;;
75890;SDS011;64571;47.512;19.054;2022-12-18T15:03:32;58.00;;;23.67;;
75890;SDS011;64571;47.512;19.054;2022-12-18T15:06:36;58.50;;;23.73;;
75890;SDS011;64571;47.512;19.054;2022-12-18T15:09:40;58.28;;;21.55;;
75890;SDS011;64571;47.512;19.054;2022-12-18T15:12:47;52.55;;;21.40;;
75890;SDS011;64571;47.512;19.054;2022-12-18T15:15:51;61.53;;;23.83;;
75890;SDS011;64571;47.512;19.054;2022-12-18T15:18:55;62.03;;;22.87;;
75890;SDS011;64571;47.512;19.054;2022-12-18T15:21:57;59.30;;;23.40;;
75890;SDS011;64571;47.512;19.054;2022-12-18T15:25:22;52.65;;;22.15;;
75890;SDS011;64571;47.512;19.054;2022-12-18T15:28:39;60.50;;;23.67;;
75890;SDS011;64571;47.512;19.054;2022-12-18T15:32:03;66.72;;;25.65;;
75890;SDS011;64571;47.512;19.054;2022-12-18T15:38:13;60.88;;;24.42;;
75890;SDS011;64571;47.512;19.054;2022-12-18T15:41:16;63.55;;;25.33;;
75890;SDS011;64571;47.512;19.054;2022-12-18T15:44:25;53.10;;;22.80;;
75890;SDS011;64571;47.512;19.054;2022-12-18T15:47:28;59.58;;;23.67;;
75890;SDS011;64571;47.512;19.054;2022-12-18T15:50:31;66.27;;;21.67;;
75890;SDS011;64571;47.512;19.054;2022-12-18T15:53:34;57.40;;;22.05;;
75890;SDS011;64571;47.512;19.054;2022-12-18T15:56:37;60.70;;;25.52;;
75890;SDS011;64571;47.512;19.054;2022-12-18T15:59:59;61.83;;;23.23;;
75890;SDS011;64571;47.512;19.054;2022-12-18T16:03:03;57.33;;;24.30;;
75890;SDS011;64571;47.512;19.054;2022-12-18T16:06:08;59.17;;;22.87;;
75890;SDS011;64571;47.512;19.054;2022-12-18T16:09:11;60.28;;;23.48;;
75890;SDS011;64571;47.512;19.054;2022-12-18T16:12:18;55.55;;;22.80;;
75890;SDS011;64571;47.512;19.054;2022-12-18T16:15:23;60.50;;;23.33;;
75890;SDS011;64571;47.512;19.054;2022-12-18T16:18:26;63.53;;;24.58;;
75890;SDS011;64571;47.512;19.054;2022-12-18T16:21:28;62.13;;;24.67;;
75890;SDS011;64571;47.512;19.054;2022-12-18T16:24:35;63.58;;;24.65;;
75890;SDS011;64571;47.512;19.054;2022-12-18T16:27:38;64.22;;;24.00;;
75890;SDS011;64571;47.512;19.054;2022-12-18T16:30:41;63.05;;;23.35;;
75890;SDS011;64571;47.512;19.054;2022-12-18T16:33:44;68.72;;;24.65;;
75890;SDS011;64571;47.512;19.054;2022-12-18T16:36:47;50.87;;;20.50;;
75890;SDS011;64571;47.512;19.054;2022-12-18T16:39:50;48.70;;;17.83;;
75890;SDS011;64571;47.512;19.054;2022-12-18T16:42:53;45.97;;;18.85;;
75890;SDS011;64571;47.512;19.054;2022-12-18T16:45:57;50.92;;;20.75;;
75890;SDS011;64571;47.512;19.054;2022-12-18T16:49:01;51.97;;;21.05;;
75890;SDS011;64571;47.512;19.054;2022-12-18T16:52:03;63.60;;;24.67;;
75890;SDS011;64571;47.512;19.054;2022-12-18T16:55:07;64.72;;;24.37;;
75890;SDS011;64571;47.512;19.054;2022-12-18T16:58:10;61.50;;;24.90;;
75890;SDS011;64571;47.512;19.054;2022-12-18T17:01:12;63.22;;;24.40;;
75890;SDS011;64571;47.512;19.054;2022-12-18T17:04:15;64.40;;;24.55;;
75890;SDS011;64571;47.512;19.054;2022-12-18T17:07:18;59.90;;;25.43;;
75890;SDS011;64571;47.512;19.054;2022-12-18T17:10:20;70.68;;;26.92;;
75890;SDS011;64571;47.512;19.054;2022-12-18T17:13:25;64.15;;;26.20;;
75890;SDS011;64571;47.512;19.054;2022-12-18T17:16:28;64.25;;;25.80;;
75890;SDS011;64571;47.512;19.054;2022-12-18T17:19:32;60.90;;;25.05;;
75890;SDS011;64571;47.512;19.054;2022-12-18T17:22:34;59.83;;;24.30;;
75890;SDS011;64571;47.512;19.054;2022-12-18T17:25:40;70.12;;;25.27;;
75890;SDS011;64571;47.512;19.054;2022-12-18T17:28:42;61.15;;;23.65;;
75890;SDS011;64571;47.512;19.054;2022-12-18T17:31:45;57.28;;;23.40;;
75890;SDS011;64571;47.512;19.054;2022-12-18T17:34:48;56.20;;;24.67;;
75890;SDS011;64571;47.512;19.054;2022-12-18T17:37:51;54.63;;;25.60;;
75890;SDS011;64571;47.512;19.054;2022-12-18T17:40:53;57.58;;;22.27;;
75890;SDS011;64571;47.512;19.054;2022-12-18T17:44:04;53.67;;;22.25;;
75890;SDS011;64571;47.512;19.054;2022-12-18T17:47:07;60.30;;;23.25;;
75890;SDS011;64571;47.512;19.054;2022-12-18T17:50:14;65.78;;;28.73;;
75890;SDS011;64571;47.512;19.054;2022-12-18T17:53:18;58.43;;;23.57;;
75890;SDS011;64571;47.512;19.054;2022-12-18T17:56:23;62.22;;;24.85;;
75890;SDS011;64571;47.512;19.054;2022-12-18T17:59:30;62.78;;;24.45;;
75890;SDS011;64571;47.512;19.054;2022-12-18T18:02:40;58.67;;;23.38;;
75890;SDS011;64571;47.512;19.054;2022-12-18T18:05:44;57.00;;;23.42;;
75890;SDS011;64571;47.512;19.054;2022-12-18T18:08:48;64.63;;;25.43;;
75890;SDS011;64571;47.512;19.054;2022-12-18T18:11:51;66.55;;;26.65;;
75890;SDS011;64571;47.512;19.054;2022-12-18T18:15:12;67.75;;;26.60;;
75890;SDS011;64571;47.512;19.054;2022-12-18T18:18:15;60.17;;;23.95;;
75890;SDS011;64571;47.512;19.054;2022-12-18T18:21:19;67.07;;;26.30;;
75890;SDS011;64571;47.512;19.054;2022-12-18T18:24:22;63.10;;;27.23;;
75890;SDS011;64571;47.512;19.054;2022-12-18T18:27:25;64.47;;;26.15;;
75890;SDS011;64571;47.512;19.054;2022-12-18T18:30:28;66.37;;;25.90;;
75890;SDS011;64571;47.512;19.054;2022-12-18T18:33:31;58.40;;;25.27;;
75890;SDS011;64571;47.512;19.054;2022-12-18T18:36:35;59.05;;;25.25;;
75890;SDS011;64571;47.512;19.054;2022-12-18T18:39:37;56.20;;;24.47;;
75890;SDS011;64571;47.512;19.054;2022-12-18T18:42:40;67.93;;;24.00;;
75890;SDS011;64571;47.512;19.054;2022-12-18T18:45:44;58.47;;;25.83;;
75890;SDS011;64571;47.512;19.054;2022-12-18T18:48:49;63.38;;;23.65;;
75890;SDS011;64571;47.512;19.054;2022-12-18T18:51:52;61.80;;;24.90;;
75890;SDS011;64571;47.512;19.054;2022-12-18T18:54:55;57.63;;;21.63;;
75890;SDS011;64571;47.512;19.054;2022-12-18T18:58:14;55.78;;;23.08;;
75890;SDS011;64571;47.512;19.054;2022-12-18T19:01:17;64.32;;;26.17;;
75890;SDS011;64571;47.512;19.054;2022-12-18T19:04:22;64.60;;;26.50;;
75890;SDS011;64571;47.512;19.054;2022-12-18T19:07:24;67.28;;;28.15;;
75890;SDS011;64571;47.512;19.054;2022-12-18T19:10:31;66.03;;;26.03;;
75890;SDS011;64571;47.512;19.054;2022-12-18T19:13:34;65.12;;;26.20;;
75890;SDS011;64571;47.512;19.054;2022-12-18T19:16:36;67.32;;;25.98;;
75890;SDS011;64571;47.512;19.054;2022-12-18T19:19:39;66.32;;;27.45;;
75890;SDS011;64571;47.512;19.054;2022-12-18T19:22:42;68.43;;;28.25;;
75890;SDS011;64571;47.512;19.054;2022-12-18T19:25:59;73.63;;;31.30;;